Terminal Aerodrome Forecast
Issued by NWS

Home | Current Version | Previous Version | Text Only | Print | Product List | Glossary On
Versions: 1 2 3 4 5 6 7 8 9 10 11 12 13 14 15 16 17 18 19 20 21 22 23 24 25 26 27 28 29 30 31 32 33 34 35 36 37 38 39 40 41 42 43 44 45 46
000
FTUS41 KCTP 201007 AAB
TAFBFD
TAF AMD
KBFD 201007Z 2010/2106 31005KT P6SM SCT200
     FM201300 34005KT P6SM SCT025
     FM201600 01005KT P6SM BKN200
     FM210000 12005KT P6SM BKN150=

USA.gov is the U.S. government's official web portal to all federal, state and local government web resources and services.